Bruceville, Indiana
Current Conditions -  °F | °C
As of 8:53 AM on Thursday 23 Oct 2014 (Local Time) from KLWV Reporting Station
Haze Haze  
Wind Chill: 46°   Ceiling: Unl
Heat Index: 46°   Visibility: 5mi
Dew Point: 43°   Wind: 3mph
Humidity: 89%   Direction: 110°ESE
Pressure: 30.26"   Gusts: NA
Location:  38.76°N, 87.42°W
Report Text: KLWV 231353Z AUTO 11003KT 5SM BR CLR 08/06 A3026 RMK AO2 SLP249 T00780061
Loading
Personal Weather Stations






























Interactive Weather Map
Tropical Storm Tracking
New forecast layout! Learn more

10-Day Weather Forecast

Advertisements
Track Severe Weather on mobile